sensor_id;sensor_type;location;lat;lon;timestamp;P1;durP1;ratioP1;P2;durP2;ratioP2
51312;SDS011;37397;53.226;10.400;2022-09-09T00:01:05;9.45;;;7.30;;
51312;SDS011;37397;53.226;10.400;2022-09-09T00:03:45;9.23;;;7.60;;
51312;SDS011;37397;53.226;10.400;2022-09-09T00:11:30;11.80;;;9.10;;
51312;SDS011;37397;53.226;10.400;2022-09-09T00:14:32;7.90;;;6.28;;
51312;SDS011;37397;53.226;10.400;2022-09-09T00:22:29;9.55;;;7.45;;
51312;SDS011;37397;53.226;10.400;2022-09-09T00:25:02;9.45;;;7.88;;
51312;SDS011;37397;53.226;10.400;2022-09-09T00:27:41;12.77;;;8.48;;
51312;SDS011;37397;53.226;10.400;2022-09-09T00:30:20;9.77;;;7.13;;
51312;SDS011;37397;53.226;10.400;2022-09-09T00:32:50;9.43;;;7.25;;
51312;SDS011;37397;53.226;10.400;2022-09-09T00:35:30;8.02;;;6.53;;
51312;SDS011;37397;53.226;10.400;2022-09-09T00:38:01;9.02;;;7.10;;
51312;SDS011;37397;53.226;10.400;2022-09-09T00:40:38;10.95;;;7.97;;
51312;SDS011;37397;53.226;10.400;2022-09-09T00:43:25;9.68;;;7.53;;
51312;SDS011;37397;53.226;10.400;2022-09-09T00:48:45;10.35;;;7.63;;
51312;SDS011;37397;53.226;10.400;2022-09-09T00:51:30;10.45;;;8.25;;
51312;SDS011;37397;53.226;10.400;2022-09-09T00:57:00;10.40;;;8.48;;
51312;SDS011;37397;53.226;10.400;2022-09-09T01:02:21;9.02;;;7.45;;
51312;SDS011;37397;53.226;10.400;2022-09-09T01:04:56;9.60;;;7.38;;
51312;SDS011;37397;53.226;10.400;2022-09-09T01:07:31;10.57;;;8.70;;
51312;SDS011;37397;53.226;10.400;2022-09-09T01:09:59;10.00;;;8.38;;
51312;SDS011;37397;53.226;10.400;2022-09-09T01:12:40;12.07;;;8.80;;
51312;SDS011;37397;53.226;10.400;2022-09-09T01:15:16;10.02;;;7.90;;
51312;SDS011;37397;53.226;10.400;2022-09-09T01:29:10;9.32;;;7.35;;
51312;SDS011;37397;53.226;10.400;2022-09-09T01:31:41;9.23;;;7.50;;
51312;SDS011;37397;53.226;10.400;2022-09-09T01:34:19;8.63;;;7.10;;
51312;SDS011;37397;53.226;10.400;2022-09-09T01:39:32;10.38;;;8.23;;
51312;SDS011;37397;53.226;10.400;2022-09-09T01:42:05;8.65;;;6.70;;
51312;SDS011;37397;53.226;10.400;2022-09-09T01:44:34;10.05;;;8.15;;
51312;SDS011;37397;53.226;10.400;2022-09-09T01:47:02;8.93;;;7.25;;
51312;SDS011;37397;53.226;10.400;2022-09-09T01:49:29;9.30;;;7.35;;
51312;SDS011;37397;53.226;10.400;2022-09-09T01:51:57;7.90;;;6.15;;
51312;SDS011;37397;53.226;10.400;2022-09-09T01:54:31;8.73;;;7.30;;
51312;SDS011;37397;53.226;10.400;2022-09-09T02:00:00;10.10;;;6.43;;
51312;SDS011;37397;53.226;10.400;2022-09-09T02:03:00;9.57;;;6.97;;
51312;SDS011;37397;53.226;10.400;2022-09-09T02:05:55;9.25;;;6.97;;
51312;SDS011;37397;53.226;10.400;2022-09-09T02:08:48;9.82;;;7.45;;
51312;SDS011;37397;53.226;10.400;2022-09-09T02:11:17;8.52;;;6.55;;
51312;SDS011;37397;53.226;10.400;2022-09-09T02:14:00;7.82;;;6.18;;
51312;SDS011;37397;53.226;10.400;2022-09-09T02:16:31;9.68;;;6.35;;
51312;SDS011;37397;53.226;10.400;2022-09-09T02:21:57;9.65;;;7.72;;
51312;SDS011;37397;53.226;10.400;2022-09-09T02:24:26;8.25;;;6.22;;
51312;SDS011;37397;53.226;10.400;2022-09-09T02:27:08;8.45;;;6.30;;
51312;SDS011;37397;53.226;10.400;2022-09-09T02:29:40;7.57;;;5.95;;
51312;SDS011;37397;53.226;10.400;2022-09-09T02:32:11;8.55;;;6.50;;
51312;SDS011;37397;53.226;10.400;2022-09-09T02:34:45;7.38;;;5.80;;
51312;SDS011;37397;53.226;10.400;2022-09-09T02:37:15;8.20;;;6.20;;
51312;SDS011;37397;53.226;10.400;2022-09-09T02:39:50;8.00;;;6.05;;
51312;SDS011;37397;53.226;10.400;2022-09-09T02:42:19;9.13;;;6.25;;
51312;SDS011;37397;53.226;10.400;2022-09-09T02:44:46;8.73;;;6.20;;
51312;SDS011;37397;53.226;10.400;2022-09-09T02:47:16;7.75;;;5.78;;
51312;SDS011;37397;53.226;10.400;2022-09-09T02:50:00;8.27;;;6.13;;
51312;SDS011;37397;53.226;10.400;2022-09-09T02:55:39;8.00;;;5.70;;
51312;SDS011;37397;53.226;10.400;2022-09-09T02:58:12;8.32;;;6.20;;
51312;SDS011;37397;53.226;10.400;2022-09-09T03:00:50;8.73;;;6.70;;
51312;SDS011;37397;53.226;10.400;2022-09-09T03:03:18;10.93;;;6.75;;
51312;SDS011;37397;53.226;10.400;2022-09-09T03:05:48;8.02;;;6.13;;
51312;SDS011;37397;53.226;10.400;2022-09-09T03:08:15;10.07;;;6.95;;
51312;SDS011;37397;53.226;10.400;2022-09-09T03:10:43;10.40;;;7.13;;
51312;SDS011;37397;53.226;10.400;2022-09-09T03:13:12;8.07;;;5.82;;
51312;SDS011;37397;53.226;10.400;2022-09-09T03:15:41;9.02;;;6.40;;
51312;SDS011;37397;53.226;10.400;2022-09-09T03:18:13;7.93;;;6.13;;
51312;SDS011;37397;53.226;10.400;2022-09-09T03:20:40;9.27;;;6.07;;
51312;SDS011;37397;53.226;10.400;2022-09-09T03:23:09;10.85;;;6.65;;
51312;SDS011;37397;53.226;10.400;2022-09-09T03:25:48;8.70;;;6.22;;
51312;SDS011;37397;53.226;10.400;2022-09-09T03:28:18;9.30;;;6.88;;
51312;SDS011;37397;53.226;10.400;2022-09-09T03:30:47;9.13;;;6.32;;
51312;SDS011;37397;53.226;10.400;2022-09-09T03:33:14;8.68;;;5.80;;
51312;SDS011;37397;53.226;10.400;2022-09-09T03:35:45;9.80;;;6.15;;
51312;SDS011;37397;53.226;10.400;2022-09-09T03:38:17;7.35;;;5.35;;
51312;SDS011;37397;53.226;10.400;2022-09-09T03:40:50;8.27;;;6.20;;
51312;SDS011;37397;53.226;10.400;2022-09-09T03:43:22;7.45;;;5.72;;
51312;SDS011;37397;53.226;10.400;2022-09-09T03:45:51;8.00;;;5.78;;
51312;SDS011;37397;53.226;10.400;2022-09-09T03:48:18;8.20;;;5.70;;
51312;SDS011;37397;53.226;10.400;2022-09-09T03:50:46;11.20;;;7.03;;
51312;SDS011;37397;53.226;10.400;2022-09-09T03:53:14;9.32;;;6.30;;
51312;SDS011;37397;53.226;10.400;2022-09-09T03:55:49;11.75;;;7.45;;
51312;SDS011;37397;53.226;10.400;2022-09-09T03:58:18;9.68;;;6.47;;
51312;SDS011;37397;53.226;10.400;2022-09-09T04:00:52;8.77;;;6.05;;
51312;SDS011;37397;53.226;10.400;2022-09-09T04:03:20;9.27;;;6.80;;
51312;SDS011;37397;53.226;10.400;2022-09-09T04:05:53;9.50;;;6.07;;
51312;SDS011;37397;53.226;10.400;2022-09-09T04:08:22;9.85;;;6.22;;
51312;SDS011;37397;53.226;10.400;2022-09-09T04:10:52;9.55;;;5.82;;
51312;SDS011;37397;53.226;10.400;2022-09-09T04:13:19;8.18;;;5.95;;
51312;SDS011;37397;53.226;10.400;2022-09-09T04:15:50;8.07;;;5.70;;
51312;SDS011;37397;53.226;10.400;2022-09-09T04:18:22;8.55;;;6.55;;
51312;SDS011;37397;53.226;10.400;2022-09-09T04:20:50;8.68;;;6.20;;
51312;SDS011;37397;53.226;10.400;2022-09-09T04:23:20;9.52;;;6.75;;
51312;SDS011;37397;53.226;10.400;2022-09-09T04:25:51;9.27;;;6.25;;
51312;SDS011;37397;53.226;10.400;2022-09-09T04:28:19;7.97;;;5.82;;
51312;SDS011;37397;53.226;10.400;2022-09-09T04:30:48;7.40;;;5.57;;
51312;SDS011;37397;53.226;10.400;2022-09-09T04:33:15;8.60;;;5.82;;
51312;SDS011;37397;53.226;10.400;2022-09-09T04:35:44;8.30;;;5.95;;
51312;SDS011;37397;53.226;10.400;2022-09-09T04:38:14;7.72;;;5.50;;
51312;SDS011;37397;53.226;10.400;2022-09-09T04:40:43;8.27;;;5.30;;
51312;SDS011;37397;53.226;10.400;2022-09-09T04:43:13;8.25;;;5.40;;
51312;SDS011;37397;53.226;10.400;2022-09-09T04:45:42;8.32;;;5.18;;
51312;SDS011;37397;53.226;10.400;2022-09-09T04:48:10;9.75;;;6.45;;
51312;SDS011;37397;53.226;10.400;2022-09-09T04:50:36;7.25;;;4.95;;
51312;SDS011;37397;53.226;10.400;2022-09-09T04:53:04;7.70;;;4.97;;
51312;SDS011;37397;53.226;10.400;2022-09-09T04:55:33;8.82;;;4.32;;
51312;SDS011;37397;53.226;10.400;2022-09-09T04:58:04;8.68;;;5.57;;
51312;SDS011;37397;53.226;10.400;2022-09-09T05:00:32;8.57;;;5.78;;
51312;SDS011;37397;53.226;10.400;2022-09-09T05:03:04;7.32;;;4.95;;
51312;SDS011;37397;53.226;10.400;2022-09-09T05:05:32;6.63;;;4.63;;
51312;SDS011;37397;53.226;10.400;2022-09-09T05:08:03;8.57;;;4.65;;
51312;SDS011;37397;53.226;10.400;2022-09-09T05:10:32;8.02;;;4.88;;
51312;SDS011;37397;53.226;10.400;2022-09-09T05:12:59;8.30;;;4.18;;
51312;SDS011;37397;53.226;10.400;2022-09-09T05:15:28;7.30;;;3.75;;
51312;SDS011;37397;53.226;10.400;2022-09-09T05:17:58;5.90;;;3.42;;
51312;SDS011;37397;53.226;10.400;2022-09-09T05:20:28;5.43;;;3.70;;
51312;SDS011;37397;53.226;10.400;2022-09-09T05:22:55;7.57;;;4.03;;
51312;SDS011;37397;53.226;10.400;2022-09-09T05:25:26;5.57;;;3.75;;
51312;SDS011;37397;53.226;10.400;2022-09-09T05:27:53;7.05;;;3.60;;
51312;SDS011;37397;53.226;10.400;2022-09-09T05:30:21;6.78;;;3.25;;
51312;SDS011;37397;53.226;10.400;2022-09-09T05:32:50;4.85;;;3.45;;
51312;SDS011;37397;53.226;10.400;2022-09-09T05:35:17;5.75;;;3.40;;
51312;SDS011;37397;53.226;10.400;2022-09-09T05:37:45;6.35;;;3.95;;
51312;SDS011;37397;53.226;10.400;2022-09-09T05:40:12;8.25;;;3.78;;
51312;SDS011;37397;53.226;10.400;2022-09-09T05:42:39;5.07;;;3.17;;
51312;SDS011;37397;53.226;10.400;2022-09-09T05:45:07;7.10;;;3.20;;
51312;SDS011;37397;53.226;10.400;2022-09-09T05:47:35;7.18;;;3.40;;
51312;SDS011;37397;53.226;10.400;2022-09-09T05:50:05;5.53;;;3.10;;
51312;SDS011;37397;53.226;10.400;2022-09-09T05:52:32;5.53;;;2.83;;
51312;SDS011;37397;53.226;10.400;2022-09-09T05:54:59;7.05;;;3.30;;
51312;SDS011;37397;53.226;10.400;2022-09-09T05:57:25;6.53;;;2.85;;
51312;SDS011;37397;53.226;10.400;2022-09-09T05:59:52;8.43;;;3.25;;
51312;SDS011;37397;53.226;10.400;2022-09-09T06:02:19;6.47;;;2.80;;
51312;SDS011;37397;53.226;10.400;2022-09-09T06:04:46;6.07;;;2.67;;
51312;SDS011;37397;53.226;10.400;2022-09-09T06:07:12;5.45;;;3.00;;
51312;SDS011;37397;53.226;10.400;2022-09-09T06:09:40;4.00;;;2.47;;
51312;SDS011;37397;53.226;10.400;2022-09-09T06:12:07;4.45;;;2.60;;
51312;SDS011;37397;53.226;10.400;2022-09-09T06:14:35;5.15;;;2.40;;
51312;SDS011;37397;53.226;10.400;2022-09-09T06:17:03;7.53;;;3.15;;
51312;SDS011;37397;53.226;10.400;2022-09-09T06:19:29;5.57;;;2.70;;
51312;SDS011;37397;53.226;10.400;2022-09-09T06:21:58;7.90;;;2.75;;
51312;SDS011;37397;53.226;10.400;2022-09-09T06:24:26;5.18;;;2.55;;
51312;SDS011;37397;53.226;10.400;2022-09-09T06:26:53;7.40;;;2.50;;
51312;SDS011;37397;53.226;10.400;2022-09-09T06:29:25;4.82;;;2.35;;
51312;SDS011;37397;53.226;10.400;2022-09-09T06:31:52;4.35;;;2.28;;
51312;SDS011;37397;53.226;10.400;2022-09-09T06:34:21;4.50;;;2.28;;
51312;SDS011;37397;53.226;10.400;2022-09-09T06:36:51;5.20;;;2.55;;
51312;SDS011;37397;53.226;10.400;2022-09-09T06:39:18;4.88;;;2.30;;
51312;SDS011;37397;53.226;10.400;2022-09-09T06:41:45;3.55;;;2.20;;
51312;SDS011;37397;53.226;10.400;2022-09-09T06:44:34;5.15;;;2.35;;
51312;SDS011;37397;53.226;10.400;2022-09-09T06:47:02;5.10;;;2.25;;
51312;SDS011;37397;53.226;10.400;2022-09-09T06:49:30;5.57;;;2.30;;
51312;SDS011;37397;53.226;10.400;2022-09-09T06:51:56;6.25;;;2.72;;
51312;SDS011;37397;53.226;10.400;2022-09-09T06:54:23;4.30;;;2.00;;
51312;SDS011;37397;53.226;10.400;2022-09-09T06:56:52;6.45;;;2.47;;
51312;SDS011;37397;53.226;10.400;2022-09-09T06:59:22;3.63;;;2.22;;
51312;SDS011;37397;53.226;10.400;2022-09-09T07:01:51;4.15;;;2.10;;
51312;SDS011;37397;53.226;10.400;2022-09-09T07:04:21;4.35;;;2.47;;
51312;SDS011;37397;53.226;10.400;2022-09-09T07:06:48;5.47;;;2.45;;
51312;SDS011;37397;53.226;10.400;2022-09-09T07:09:19;4.68;;;2.30;;
51312;SDS011;37397;53.226;10.400;2022-09-09T07:11:48;4.97;;;2.53;;
51312;SDS011;37397;53.226;10.400;2022-09-09T07:14:20;5.95;;;2.60;;
51312;SDS011;37397;53.226;10.400;2022-09-09T07:16:57;6.55;;;2.10;;
51312;SDS011;37397;53.226;10.400;2022-09-09T07:19:26;3.45;;;2.20;;
51312;SDS011;37397;53.226;10.400;2022-09-09T07:21:54;5.35;;;2.30;;
51312;SDS011;37397;53.226;10.400;2022-09-09T07:24:22;4.38;;;2.20;;
51312;SDS011;37397;53.226;10.400;2022-09-09T07:26:50;4.68;;;2.60;;
51312;SDS011;37397;53.226;10.400;2022-09-09T07:29:18;5.68;;;2.33;;
51312;SDS011;37397;53.226;10.400;2022-09-09T07:31:47;5.78;;;2.22;;
51312;SDS011;37397;53.226;10.400;2022-09-09T07:34:19;6.70;;;2.30;;
51312;SDS011;37397;53.226;10.400;2022-09-09T07:36:45;4.55;;;2.45;;
51312;SDS011;37397;53.226;10.400;2022-09-09T07:39:13;4.63;;;2.47;;
51312;SDS011;37397;53.226;10.400;2022-09-09T07:41:46;4.68;;;2.10;;
51312;SDS011;37397;53.226;10.400;2022-09-09T07:44:18;5.13;;;2.08;;
51312;SDS011;37397;53.226;10.400;2022-09-09T07:46:50;6.80;;;2.60;;
51312;SDS011;37397;53.226;10.400;2022-09-09T07:49:22;5.53;;;2.10;;
51312;SDS011;37397;53.226;10.400;2022-09-09T07:51:58;5.97;;;2.42;;
51312;SDS011;37397;53.226;10.400;2022-09-09T07:54:25;6.90;;;2.88;;
51312;SDS011;37397;53.226;10.400;2022-09-09T07:56:52;4.38;;;2.28;;
51312;SDS011;37397;53.226;10.400;2022-09-09T07:59:21;4.75;;;2.17;;
51312;SDS011;37397;53.226;10.400;2022-09-09T08:01:51;6.10;;;2.35;;
51312;SDS011;37397;53.226;10.400;2022-09-09T08:04:25;6.10;;;2.38;;
51312;SDS011;37397;53.226;10.400;2022-09-09T08:06:54;7.97;;;2.42;;
51312;SDS011;37397;53.226;10.400;2022-09-09T08:09:24;5.50;;;2.10;;
51312;SDS011;37397;53.226;10.400;2022-09-09T08:12:10;5.88;;;2.35;;
51312;SDS011;37397;53.226;10.400;2022-09-09T08:14:39;3.33;;;2.10;;
51312;SDS011;37397;53.226;10.400;2022-09-09T08:17:06;5.18;;;2.45;;
51312;SDS011;37397;53.226;10.400;2022-09-09T08:19:32;3.65;;;2.10;;
51312;SDS011;37397;53.226;10.400;2022-09-09T08:22:05;4.55;;;2.28;;
51312;SDS011;37397;53.226;10.400;2022-09-09T08:24:35;4.25;;;2.33;;
51312;SDS011;37397;53.226;10.400;2022-09-09T08:27:02;4.57;;;1.95;;
51312;SDS011;37397;53.226;10.400;2022-09-09T08:29:28;6.53;;;2.40;;
51312;SDS011;37397;53.226;10.400;2022-09-09T08:31:56;3.88;;;2.00;;
51312;SDS011;37397;53.226;10.400;2022-09-09T08:34:27;6.10;;;2.45;;
51312;SDS011;37397;53.226;10.400;2022-09-09T08:36:55;5.22;;;2.00;;
51312;SDS011;37397;53.226;10.400;2022-09-09T08:39:28;4.60;;;2.20;;
51312;SDS011;37397;53.226;10.400;2022-09-09T08:41:59;4.55;;;2.20;;
51312;SDS011;37397;53.226;10.400;2022-09-09T08:55:53;6.20;;;2.30;;
51312;SDS011;37397;53.226;10.400;2022-09-09T08:58:34;4.50;;;2.20;;
51312;SDS011;37397;53.226;10.400;2022-09-09T09:01:13;4.90;;;2.20;;
51312;SDS011;37397;53.226;10.400;2022-09-09T09:04:28;5.53;;;2.17;;
51312;SDS011;37397;53.226;10.400;2022-09-09T09:07:26;5.28;;;2.00;;
51312;SDS011;37397;53.226;10.400;2022-09-09T09:13:12;4.05;;;2.30;;
51312;SDS011;37397;53.226;10.400;2022-09-09T09:15:42;4.72;;;2.42;;
51312;SDS011;37397;53.226;10.400;2022-09-09T09:18:12;6.22;;;2.08;;
51312;SDS011;37397;53.226;10.400;2022-09-09T09:20:42;4.85;;;2.20;;
51312;SDS011;37397;53.226;10.400;2022-09-09T09:23:39;5.82;;;2.28;;
51312;SDS011;37397;53.226;10.400;2022-09-09T09:26:32;4.85;;;2.30;;
51312;SDS011;37397;53.226;10.400;2022-09-09T09:29:10;4.97;;;1.98;;
51312;SDS011;37397;53.226;10.400;2022-09-09T09:31:41;5.95;;;2.25;;
51312;SDS011;37397;53.226;10.400;2022-09-09T09:34:10;4.22;;;2.10;;
51312;SDS011;37397;53.226;10.400;2022-09-09T09:36:44;6.47;;;2.28;;
51312;SDS011;37397;53.226;10.400;2022-09-09T09:39:22;6.85;;;2.20;;
51312;SDS011;37397;53.226;10.400;2022-09-09T09:42:15;4.90;;;2.28;;
51312;SDS011;37397;53.226;10.400;2022-09-09T09:44:49;6.38;;;2.15;;
51312;SDS011;37397;53.226;10.400;2022-09-09T09:47:19;2.85;;;1.85;;
51312;SDS011;37397;53.226;10.400;2022-09-09T09:50:16;5.15;;;1.90;;
51312;SDS011;37397;53.226;10.400;2022-09-09T09:52:53;4.55;;;2.10;;
51312;SDS011;37397;53.226;10.400;2022-09-09T09:55:21;4.13;;;2.00;;
51312;SDS011;37397;53.226;10.400;2022-09-09T09:57:50;6.90;;;2.53;;
51312;SDS011;37397;53.226;10.400;2022-09-09T10:00:21;5.30;;;1.83;;
51312;SDS011;37397;53.226;10.400;2022-09-09T10:03:00;3.90;;;1.85;;
51312;SDS011;37397;53.226;10.400;2022-09-09T10:05:32;3.67;;;1.95;;
51312;SDS011;37397;53.226;10.400;2022-09-09T10:11:22;5.05;;;1.90;;
51312;SDS011;37397;53.226;10.400;2022-09-09T10:16:17;7.60;;;2.40;;
51312;SDS011;37397;53.226;10.400;2022-09-09T10:19:07;3.25;;;1.98;;
51312;SDS011;37397;53.226;10.400;2022-09-09T10:30:20;6.10;;;2.00;;
51312;SDS011;37397;53.226;10.400;2022-09-09T10:33:09;5.57;;;2.45;;
51312;SDS011;37397;53.226;10.400;2022-09-09T10:35:52;3.83;;;1.83;;
51312;SDS011;37397;53.226;10.400;2022-09-09T10:38:29;5.05;;;2.15;;
51312;SDS011;37397;53.226;10.400;2022-09-09T10:41:07;7.40;;;2.50;;
51312;SDS011;37397;53.226;10.400;2022-09-09T10:52:38;7.00;;;2.35;;
51312;SDS011;37397;53.226;10.400;2022-09-09T10:57:48;7.18;;;2.00;;
51312;SDS011;37397;53.226;10.400;2022-09-09T11:00:19;4.68;;;2.13;;
51312;SDS011;37397;53.226;10.400;2022-09-09T11:03:05;5.55;;;2.08;;
51312;SDS011;37397;53.226;10.400;2022-09-09T11:06:17;5.75;;;2.28;;
51312;SDS011;37397;53.226;10.400;2022-09-09T11:08:30;6.18;;;2.25;;
51312;SDS011;37397;53.226;10.400;2022-09-09T11:19:39;2.90;;;1.80;;
51312;SDS011;37397;53.226;10.400;2022-09-09T11:22:12;5.22;;;1.70;;
51312;SDS011;37397;53.226;10.400;2022-09-09T11:24:45;5.22;;;1.80;;
51312;SDS011;37397;53.226;10.400;2022-09-09T11:33:08;2.97;;;1.77;;
51312;SDS011;37397;53.226;10.400;2022-09-09T11:39:27;5.70;;;1.90;;
51312;SDS011;37397;53.226;10.400;2022-09-09T11:44:38;4.50;;;1.88;;
51312;SDS011;37397;53.226;10.400;2022-09-09T11:47:14;9.93;;;2.63;;
51312;SDS011;37397;53.226;10.400;2022-09-09T11:50:38;13.15;;;3.38;;
51312;SDS011;37397;53.226;10.400;2022-09-09T11:52:45;13.50;;;3.72;;
51312;SDS011;37397;53.226;10.400;2022-09-09T11:58:03;9.13;;;2.70;;
51312;SDS011;37397;53.226;10.400;2022-09-09T12:00:35;9.05;;;2.58;;
51312;SDS011;37397;53.226;10.400;2022-09-09T12:06:15;8.40;;;2.95;;
51312;SDS011;37397;53.226;10.400;2022-09-09T12:08:47;8.32;;;2.50;;
51312;SDS011;37397;53.226;10.400;2022-09-09T12:11:23;6.78;;;2.45;;
51312;SDS011;37397;53.226;10.400;2022-09-09T12:13:55;6.80;;;2.53;;
51312;SDS011;37397;53.226;10.400;2022-09-09T12:16:31;9.20;;;2.50;;
51312;SDS011;37397;53.226;10.400;2022-09-09T12:19:05;7.82;;;2.63;;
51312;SDS011;37397;53.226;10.400;2022-09-09T12:25:30;7.30;;;2.50;;
51312;SDS011;37397;53.226;10.400;2022-09-09T12:30:32;4.18;;;2.10;;
51312;SDS011;37397;53.226;10.400;2022-09-09T12:33:11;7.93;;;2.38;;
51312;SDS011;37397;53.226;10.400;2022-09-09T12:35:39;4.43;;;2.10;;
51312;SDS011;37397;53.226;10.400;2022-09-09T12:38:12;7.10;;;2.53;;
51312;SDS011;37397;53.226;10.400;2022-09-09T12:40:53;7.55;;;2.10;;
51312;SDS011;37397;53.226;10.400;2022-09-09T12:43:25;5.88;;;2.30;;
51312;SDS011;37397;53.226;10.400;2022-09-09T12:45:58;10.35;;;2.70;;
51312;SDS011;37397;53.226;10.400;2022-09-09T12:48:39;5.00;;;2.60;;
51312;SDS011;37397;53.226;10.400;2022-09-09T12:51:18;5.18;;;2.38;;
51312;SDS011;37397;53.226;10.400;2022-09-09T12:53:51;6.10;;;2.28;;
51312;SDS011;37397;53.226;10.400;2022-09-09T12:56:18;5.18;;;2.13;;
51312;SDS011;37397;53.226;10.400;2022-09-09T12:58:47;6.25;;;2.10;;
51312;SDS011;37397;53.226;10.400;2022-09-09T13:01:22;5.78;;;2.55;;
51312;SDS011;37397;53.226;10.400;2022-09-09T13:03:51;4.33;;;2.07;;
51312;SDS011;37397;53.226;10.400;2022-09-09T13:06:20;5.78;;;2.50;;
51312;SDS011;37397;53.226;10.400;2022-09-09T13:08:55;5.18;;;2.28;;
51312;SDS011;37397;53.226;10.400;2022-09-09T13:11:28;6.85;;;2.70;;
51312;SDS011;37397;53.226;10.400;2022-09-09T13:13:58;5.15;;;2.60;;
51312;SDS011;37397;53.226;10.400;2022-09-09T13:16:26;6.13;;;2.55;;
51312;SDS011;37397;53.226;10.400;2022-09-09T13:18:59;6.30;;;2.67;;
51312;SDS011;37397;53.226;10.400;2022-09-09T13:21:31;6.72;;;2.63;;
51312;SDS011;37397;53.226;10.400;2022-09-09T13:24:00;6.68;;;2.80;;
51312;SDS011;37397;53.226;10.400;2022-09-09T13:26:29;5.60;;;2.85;;
51312;SDS011;37397;53.226;10.400;2022-09-09T13:29:07;5.38;;;2.58;;
51312;SDS011;37397;53.226;10.400;2022-09-09T13:31:44;5.53;;;2.70;;
51312;SDS011;37397;53.226;10.400;2022-09-09T13:34:22;5.78;;;2.40;;
51312;SDS011;37397;53.226;10.400;2022-09-09T13:39:25;4.63;;;2.42;;
51312;SDS011;37397;53.226;10.400;2022-09-09T13:41:51;6.57;;;2.40;;
51312;SDS011;37397;53.226;10.400;2022-09-09T13:44:20;5.80;;;2.70;;
51312;SDS011;37397;53.226;10.400;2022-09-09T13:47:00;6.55;;;2.53;;
51312;SDS011;37397;53.226;10.400;2022-09-09T13:52:05;5.78;;;2.90;;
51312;SDS011;37397;53.226;10.400;2022-09-09T13:54:35;6.13;;;2.53;;
51312;SDS011;37397;53.226;10.400;2022-09-09T13:57:01;5.35;;;2.30;;
51312;SDS011;37397;53.226;10.400;2022-09-09T13:59:28;5.22;;;2.65;;
51312;SDS011;37397;53.226;10.400;2022-09-09T14:02:15;4.85;;;2.35;;
51312;SDS011;37397;53.226;10.400;2022-09-09T14:04:43;4.82;;;2.13;;
51312;SDS011;37397;53.226;10.400;2022-09-09T14:07:16;5.07;;;2.00;;
51312;SDS011;37397;53.226;10.400;2022-09-09T14:09:43;6.38;;;2.08;;
51312;SDS011;37397;53.226;10.400;2022-09-09T14:12:11;5.13;;;1.77;;
51312;SDS011;37397;53.226;10.400;2022-09-09T14:14:38;3.17;;;1.50;;
51312;SDS011;37397;53.226;10.400;2022-09-09T14:17:04;3.65;;;1.42;;
51312;SDS011;37397;53.226;10.400;2022-09-09T14:19:33;4.40;;;1.73;;
51312;SDS011;37397;53.226;10.400;2022-09-09T14:21:59;4.72;;;1.55;;
51312;SDS011;37397;53.226;10.400;2022-09-09T14:24:27;3.97;;;1.40;;
51312;SDS011;37397;53.226;10.400;2022-09-09T14:26:54;4.32;;;1.60;;
51312;SDS011;37397;53.226;10.400;2022-09-09T14:29:20;1.80;;;1.10;;
51312;SDS011;37397;53.226;10.400;2022-09-09T14:31:47;2.60;;;1.40;;
51312;SDS011;37397;53.226;10.400;2022-09-09T14:34:13;3.67;;;1.40;;
51312;SDS011;37397;53.226;10.400;2022-09-09T14:36:40;3.50;;;1.40;;
51312;SDS011;37397;53.226;10.400;2022-09-09T14:39:07;3.40;;;1.30;;
51312;SDS011;37397;53.226;10.400;2022-09-09T14:41:34;2.55;;;1.35;;
51312;SDS011;37397;53.226;10.400;2022-09-09T14:44:00;3.50;;;1.52;;
51312;SDS011;37397;53.226;10.400;2022-09-09T14:46:27;3.80;;;1.48;;
51312;SDS011;37397;53.226;10.400;2022-09-09T14:48:53;4.40;;;1.50;;
51312;SDS011;37397;53.226;10.400;2022-09-09T14:51:25;2.90;;;1.35;;
51312;SDS011;37397;53.226;10.400;2022-09-09T14:53:54;5.28;;;1.75;;
51312;SDS011;37397;53.226;10.400;2022-09-09T14:56:24;4.88;;;2.08;;
51312;SDS011;37397;53.226;10.400;2022-09-09T14:58:53;8.20;;;2.75;;
51312;SDS011;37397;53.226;10.400;2022-09-09T15:01:21;9.27;;;2.90;;
51312;SDS011;37397;53.226;10.400;2022-09-09T15:03:49;9.60;;;2.45;;
51312;SDS011;37397;53.226;10.400;2022-09-09T15:06:21;7.38;;;2.40;;
51312;SDS011;37397;53.226;10.400;2022-09-09T15:08:49;11.02;;;2.67;;
51312;SDS011;37397;53.226;10.400;2022-09-09T15:11:19;7.75;;;2.63;;
51312;SDS011;37397;53.226;10.400;2022-09-09T15:13:46;5.20;;;2.28;;
51312;SDS011;37397;53.226;10.400;2022-09-09T15:16:14;5.63;;;1.95;;
51312;SDS011;37397;53.226;10.400;2022-09-09T15:18:42;6.25;;;2.00;;
51312;SDS011;37397;53.226;10.400;2022-09-09T15:21:14;3.88;;;1.75;;
51312;SDS011;37397;53.226;10.400;2022-09-09T15:23:43;5.25;;;1.92;;
51312;SDS011;37397;53.226;10.400;2022-09-09T15:26:09;4.53;;;1.55;;
51312;SDS011;37397;53.226;10.400;2022-09-09T15:28:37;4.10;;;1.52;;
51312;SDS011;37397;53.226;10.400;2022-09-09T15:31:09;4.32;;;1.80;;
51312;SDS011;37397;53.226;10.400;2022-09-09T15:33:40;4.43;;;1.90;;
51312;SDS011;37397;53.226;10.400;2022-09-09T15:36:14;3.95;;;1.70;;
51312;SDS011;37397;53.226;10.400;2022-09-09T15:38:52;3.45;;;1.50;;
51312;SDS011;37397;53.226;10.400;2022-09-09T15:41:19;4.95;;;1.70;;
51312;SDS011;37397;53.226;10.400;2022-09-09T15:43:48;4.95;;;1.50;;
51312;SDS011;37397;53.226;10.400;2022-09-09T15:48:43;5.63;;;1.77;;
51312;SDS011;37397;53.226;10.400;2022-09-09T15:51:14;3.38;;;1.50;;
51312;SDS011;37397;53.226;10.400;2022-09-09T15:54:01;4.88;;;1.95;;
51312;SDS011;37397;53.226;10.400;2022-09-09T15:56:28;2.90;;;1.80;;
51312;SDS011;37397;53.226;10.400;2022-09-09T15:58:59;5.35;;;1.95;;
51312;SDS011;37397;53.226;10.400;2022-09-09T16:01:26;3.17;;;1.77;;
51312;SDS011;37397;53.226;10.400;2022-09-09T16:03:53;4.03;;;1.63;;
51312;SDS011;37397;53.226;10.400;2022-09-09T16:06:21;3.65;;;1.50;;
51312;SDS011;37397;53.226;10.400;2022-09-09T16:08:50;4.70;;;2.03;;
51312;SDS011;37397;53.226;10.400;2022-09-09T16:11:19;6.30;;;1.88;;
51312;SDS011;37397;53.226;10.400;2022-09-09T16:13:57;4.82;;;2.47;;
51312;SDS011;37397;53.226;10.400;2022-09-09T16:16:26;5.13;;;1.90;;
51312;SDS011;37397;53.226;10.400;2022-09-09T16:18:55;4.05;;;1.88;;
51312;SDS011;37397;53.226;10.400;2022-09-09T16:21:27;3.53;;;1.73;;
51312;SDS011;37397;53.226;10.400;2022-09-09T16:23:56;3.30;;;1.67;;
51312;SDS011;37397;53.226;10.400;2022-09-09T16:26:25;3.90;;;1.83;;
51312;SDS011;37397;53.226;10.400;2022-09-09T16:28:53;3.60;;;1.83;;
51312;SDS011;37397;53.226;10.400;2022-09-09T16:31:21;4.10;;;1.98;;
51312;SDS011;37397;53.226;10.400;2022-09-09T16:33:50;6.82;;;2.40;;
51312;SDS011;37397;53.226;10.400;2022-09-09T16:36:19;6.28;;;2.20;;
51312;SDS011;37397;53.226;10.400;2022-09-09T16:38:47;4.07;;;1.67;;
51312;SDS011;37397;53.226;10.400;2022-09-09T16:41:17;6.40;;;2.00;;
51312;SDS011;37397;53.226;10.400;2022-09-09T16:43:44;4.95;;;2.05;;
51312;SDS011;37397;53.226;10.400;2022-09-09T16:48:46;3.63;;;1.73;;
51312;SDS011;37397;53.226;10.400;2022-09-09T16:51:17;7.28;;;1.85;;
51312;SDS011;37397;53.226;10.400;2022-09-09T16:53:50;2.80;;;1.67;;
51312;SDS011;37397;53.226;10.400;2022-09-09T16:56:18;5.78;;;2.13;;
51312;SDS011;37397;53.226;10.400;2022-09-09T16:58:50;6.32;;;2.20;;
51312;SDS011;37397;53.226;10.400;2022-09-09T17:01:17;4.00;;;2.03;;
51312;SDS011;37397;53.226;10.400;2022-09-09T17:03:44;3.45;;;1.90;;
51312;SDS011;37397;53.226;10.400;2022-09-09T17:06:11;4.68;;;2.20;;